Time,TemperatureF,DewpointF,PressureIn,WindDirection,WindDirectionDegrees,WindSpeedMPH,WindSpeedGustMPH,Humidity,HourlyPrecipIn,Conditions,Clouds,dailyrainin,SolarRadiationWatts/m^2,SoftwareType,DateUTC
2013-01-14 00:01:00,62.1,60.1,30.12,SSE,157,0.3,2.3,93,0.00,CLR,OVC,0.00,0.0,WeatherDisplay:10.37,2013-01-14 05:01:00,
2013-01-14 00:03:00,62.0,60.0,30.12,SSE,158,0.0,2.3,93,0.00,CLR,OVC,0.00,0.0,WeatherDisplay:10.37,2013-01-14 05:03:00,
2013-01-14 00:04:00,62.0,60.0,30.12,South,178,1.1,1.1,93,0.00,CLR,OVC,0.00,0.0,WeatherDisplay:10.37,2013-01-14 05:04:00,
2013-01-14 00:09:00,61.9,60.2,30.11,South,179,1.2,3.5,94,0.00,CLR,OVC,0.00,0.0,WeatherDisplay:10.37,2013-01-14 05:09:00,
2013-01-14 00:14:00,61.8,60.1,30.11,South,178,0.7,2.3,94,0.00,CLR,OVC,0.00,0.0,WeatherDisplay:10.37,2013-01-14 05:14:00,
2013-01-14 00:19:00,61.7,59.7,30.12,South,188,0.2,0.0,93,0.00,CLR,OVC,0.00,0.0,WeatherDisplay:10.37,2013-01-14 05:19:00,
2013-01-14 00:24:00,61.5,59.8,30.12,South,188,0.3,1.1,94,0.00,CLR,OVC,0.00,0.0,WeatherDisplay:10.37,2013-01-14 05:24:00,
2013-01-14 00:29:00,61.4,59.7,30.12,South,188,0.2,2.3,94,0.00,CLR,OVC,0.00,0.0,WeatherDisplay:10.37,2013-01-14 05:29:00,
2013-01-14 00:34:00,61.2,59.5,30.12,South,183,1.5,3.5,94,0.00,CLR,OVC,0.00,0.0,WeatherDisplay:10.37,2013-01-14 05:34:00,
2013-01-14 00:39:00,61.2,59.5,30.12,South,180,0.4,2.3,94,0.00,CLR,OVC,0.00,0.0,WeatherDisplay:10.37,2013-01-14 05:39:00,
2013-01-14 00:44:00,61.1,59.4,30.12,South,185,0.6,2.3,94,0.00,CLR,OVC,0.00,0.0,WeatherDisplay:10.37,2013-01-14 05:44:00,
2013-01-14 00:49:00,61.1,59.7,30.12,South,185,1.0,2.3,95,0.00,CLR,OVC,0.00,0.0,WeatherDisplay:10.37,2013-01-14 05:49:00,
2013-01-14 00:54:00,61.0,59.6,30.12,South,171,1.1,2.3,95,0.00,CLR,OVC,0.00,0.0,WeatherDisplay:10.37,2013-01-14 05:54:00,
2013-01-14 00:59:00,60.9,59.5,30.11,South,172,0.7,2.3,95,0.00,CLR,OVC,0.00,0.0,WeatherDisplay:10.37,2013-01-14 05:59:00,
2013-01-14 01:04:00,60.9,59.5,30.11,South,191,1.3,3.5,95,0.00,CLR,OVC,0.00,0.0,WeatherDisplay:10.37,2013-01-14 06:04:00,
2013-01-14 01:09:00,61.1,59.7,30.12,SSW,192,1.9,3.5,95,0.00,CLR,OVC,0.00,0.0,WeatherDisplay:10.37,2013-01-14 06:09:00,
2013-01-14 01:14:00,61.4,60.0,30.12,South,182,0.6,2.3,95,0.00,CLR,OVC,0.00,0.0,WeatherDisplay:10.37,2013-01-14 06:14:00,
2013-01-14 01:19:00,61.4,60.0,30.12,SSW,205,1.1,3.5,95,0.00,CLR,OVC,0.00,0.0,WeatherDisplay:10.37,2013-01-14 06:19:00,
2013-01-14 01:24:00,61.6,60.2,30.12,South,175,0.9,2.3,95,0.00,CLR,OVC,0.00,0.0,WeatherDisplay:10.37,2013-01-14 06:24:00,
2013-01-14 01:29:00,61.7,60.3,30.13,SSW,207,1.1,2.3,95,0.00,CLR,OVC,0.00,0.0,WeatherDisplay:10.37,2013-01-14 06:29:00,
2013-01-14 01:34:00,61.7,60.3,30.13,SSW,202,1.5,3.5,95,0.00,CLR,OVC,0.00,0.0,WeatherDisplay:10.37,2013-01-14 06:34:00,
2013-01-14 01:39:00,61.8,60.1,30.13,SW,221,0.0,0.0,94,0.00,CLR,OVC,0.00,0.0,WeatherDisplay:10.37,2013-01-14 06:39:00,
2013-01-14 01:44:00,61.8,60.1,30.13,SW,221,0.5,1.1,94,0.00,CLR,OVC,0.00,0.0,WeatherDisplay:10.37,2013-01-14 06:44:00,
2013-01-14 01:49:00,61.7,60.0,30.13,SW,221,0.7,2.3,94,0.00,CLR,OVC,0.00,0.0,WeatherDisplay:10.37,2013-01-14 06:49:00,
2013-01-14 01:54:00,61.6,59.9,30.13,SSW,212,0.4,1.1,94,0.00,CLR,OVC,0.00,0.0,WeatherDisplay:10.37,2013-01-14 06:54:00,
2013-01-14 01:59:00,61.4,59.7,30.13,SSW,202,0.7,2.3,94,0.00,CLR,OVC,0.00,0.0,WeatherDisplay:10.37,2013-01-14 06:59:00,
2013-01-14 02:04:00,61.3,59.6,30.13,SSW,196,1.4,3.5,94,0.00,CLR,OVC,0.00,0.0,WeatherDisplay:10.37,2013-01-14 07:04:00,
2013-01-14 02:09:00,61.3,59.6,30.14,SSW,192,0.3,2.3,94,0.00,CLR,OVC,0.00,0.0,WeatherDisplay:10.37,2013-01-14 07:09:00,
2013-01-14 02:14:00,61.1,59.4,30.13,SSE,161,1.4,3.5,94,0.00,CLR,OVC,0.00,0.0,WeatherDisplay:10.37,2013-01-14 07:14:00,
2013-01-14 02:19:00,61.1,59.4,30.13,SSW,199,1.4,3.5,94,0.00,CLR,OVC,0.00,0.0,WeatherDisplay:10.37,2013-01-14 07:19:00,
2013-01-14 02:24:00,61.2,59.8,30.13,South,178,1.6,3.5,95,0.00,CLR,OVC,0.00,0.0,WeatherDisplay:10.37,2013-01-14 07:24:00,
2013-01-14 02:29:00,61.2,59.8,30.14,SSW,192,1.1,3.5,95,0.00,CLR,OVC,0.00,0.0,WeatherDisplay:10.37,2013-01-14 07:29:00,
2013-01-14 02:34:00,61.3,59.9,30.13,SSE,148,1.4,2.3,95,0.00,CLR,OVC,0.00,0.0,WeatherDisplay:10.37,2013-01-14 07:34:00,
2013-01-14 02:39:00,61.3,59.9,30.13,SSE,165,0.8,2.3,95,0.00,CLR,OVC,0.00,0.0,WeatherDisplay:10.37,2013-01-14 07:39:00,
2013-01-14 02:44:00,61.3,59.9,30.14,SSW,198,0.6,3.5,95,0.00,CLR,OVC,0.00,0.0,WeatherDisplay:10.37,2013-01-14 07:44:00,
2013-01-14 02:49:00,61.3,59.9,30.13,SSW,194,1.6,3.5,95,0.00,CLR,OVC,0.00,0.0,WeatherDisplay:10.37,2013-01-14 07:49:00,
2013-01-14 02:54:00,61.3,59.9,30.13,SSW,196,1.2,3.5,95,0.00,CLR,OVC,0.00,0.0,WeatherDisplay:10.37,2013-01-14 07:54:00,
2013-01-14 02:59:00,61.2,59.8,30.13,SSW,194,0.0,1.1,95,0.00,CLR,OVC,0.00,0.0,WeatherDisplay:10.37,2013-01-14 07:59:00,
2013-01-14 03:05:00,61.1,59.7,30.12,SE,138,0.4,2.0,95,0.00,CLR,OVC,0.00,0.0,WeatherDisplay:10.37,2013-01-14 08:05:00,
2013-01-14 03:10:00,61.0,59.6,30.12,South,171,0.9,2.3,95,0.00,CLR,OVC,0.00,0.0,WeatherDisplay:10.37,2013-01-14 08:10:00,
2013-01-14 03:15:00,61.1,60.0,30.12,SSW,192,1.9,3.5,96,0.00,CLR,OVC,0.00,0.0,WeatherDisplay:10.37,2013-01-14 08:15:00,
2013-01-14 03:20:00,61.1,60.0,30.12,SSE,164,0.6,2.3,96,0.00,CLR,OVC,0.00,0.0,WeatherDisplay:10.37,2013-01-14 08:20:00,
2013-01-14 03:25:00,61.1,60.0,30.12,South,171,1.9,3.5,96,0.00,CLR,OVC,0.00,0.0,WeatherDisplay:10.37,2013-01-14 08:25:00,
2013-01-14 03:30:00,61.2,60.1,30.12,South,186,3.5,6.9,96,0.00,CLR,OVC,0.00,0.0,WeatherDisplay:10.37,2013-01-14 08:30:00,
2013-01-14 03:35:00,61.4,60.2,30.11,SSE,163,2.0,3.5,96,0.00,CLR,OVC,0.00,0.0,WeatherDisplay:10.37,2013-01-14 08:35:00,
2013-01-14 03:40:00,61.5,60.3,30.11,SW,222,1.9,3.5,96,0.00,CLR,OVC,0.00,0.0,WeatherDisplay:10.37,2013-01-14 08:40:00,
2013-01-14 03:45:00,61.6,60.4,30.11,SSW,201,1.4,4.6,96,0.00,CLR,OVC,0.00,0.0,WeatherDisplay:10.37,2013-01-14 08:45:00,
2013-01-14 03:50:00,61.6,60.4,30.12,SSW,198,1.9,3.5,96,0.00,CLR,OVC,0.00,0.0,WeatherDisplay:10.37,2013-01-14 08:50:00,
2013-01-14 03:55:00,61.6,60.4,30.11,South,188,2.3,4.6,96,0.00,CLR,OVC,0.00,0.0,WeatherDisplay:10.37,2013-01-14 08:55:00,
2013-01-14 04:00:00,61.6,60.4,30.11,South,182,1.1,2.3,96,0.00,CLR,OVC,0.00,0.0,WeatherDisplay:10.37,2013-01-14 09:00:00,
2013-01-14 04:05:00,61.6,60.4,30.11,SE,141,2.3,3.5,96,0.00,CLR,OVC,0.00,0.0,WeatherDisplay:10.37,2013-01-14 09:05:00,
2013-01-14 04:10:00,61.5,60.3,30.10,South,175,1.3,3.5,96,0.00,CLR,OVC,0.00,0.0,WeatherDisplay:10.37,2013-01-14 09:10:00,
2013-01-14 04:15:00,61.4,60.2,30.10,SE,146,0.6,1.1,96,0.00,CLR,OVC,0.00,0.0,WeatherDisplay:10.37,2013-01-14 09:15:00,
2013-01-14 04:20:00,61.4,60.2,30.10,SSE,148,2.3,3.5,96,0.00,CLR,OVC,0.00,0.0,WeatherDisplay:10.37,2013-01-14 09:20:00,
2013-01-14 04:25:00,61.4,60.2,30.09,SSE,164,1.8,3.5,96,0.00,CLR,OVC,0.00,0.0,WeatherDisplay:10.37,2013-01-14 09:25:00,
2013-01-14 04:30:00,61.4,60.2,30.09,SSE,156,1.3,3.5,96,0.00,CLR,OVC,0.00,0.0,WeatherDisplay:10.37,2013-01-14 09:30:00,
2013-01-14 04:35:00,61.4,60.2,30.09,South,184,3.5,3.5,96,0.00,CLR,OVC,0.00,0.0,WeatherDisplay:10.37,2013-01-14 09:35:00,
2013-01-14 04:40:00,61.5,60.3,30.09,SSW,193,3.3,4.6,96,0.00,CLR,OVC,0.00,0.0,WeatherDisplay:10.37,2013-01-14 09:40:00,
2013-01-14 04:45:00,61.6,60.2,30.09,South,173,1.2,3.5,95,0.00,CLR,OVC,0.00,0.0,WeatherDisplay:10.37,2013-01-14 09:45:00,
2013-01-14 04:50:00,61.7,60.5,30.09,SSE,150,3.2,3.5,96,0.00,CLR,OVC,0.00,0.0,WeatherDisplay:10.37,2013-01-14 09:50:00,
2013-01-14 04:55:00,61.6,60.2,30.08,South,178,1.0,3.5,95,0.00,CLR,OVC,0.00,0.0,WeatherDisplay:10.37,2013-01-14 09:55:00,
2013-01-14 05:00:00,61.7,60.3,30.08,SW,220,2.1,3.5,95,0.00,CLR,OVC,0.00,0.0,WeatherDisplay:10.37,2013-01-14 10:00:00,
2013-01-14 05:05:00,61.7,60.3,30.09,SW,225,1.3,3.5,95,0.00,CLR,OVC,0.00,0.0,WeatherDisplay:10.37,2013-01-14 10:05:00,
2013-01-14 05:10:00,61.8,60.1,30.09,SW,221,1.4,3.5,94,0.00,CLR,OVC,0.00,0.0,WeatherDisplay:10.37,2013-01-14 10:10:00,
2013-01-14 05:15:00,61.8,60.1,30.09,SW,227,1.0,3.5,94,0.00,CLR,OVC,0.00,0.0,WeatherDisplay:10.37,2013-01-14 10:15:00,
2013-01-14 05:20:00,61.8,60.1,30.09,SSW,203,1.7,3.5,94,0.00,CLR,OVC,0.00,0.0,WeatherDisplay:10.37,2013-01-14 10:20:00,
2013-01-14 05:25:00,61.8,60.1,30.09,SSW,204,0.0,0.0,94,0.00,CLR,OVC,0.00,0.0,WeatherDisplay:10.37,2013-01-14 10:25:00,
2013-01-14 05:30:00,61.6,59.9,30.10,WSW,243,0.2,1.1,94,0.00,CLR,OVC,0.00,0.0,WeatherDisplay:10.37,2013-01-14 10:30:00,
2013-01-14 05:35:00,61.5,59.8,30.09,WSW,244,0.0,0.0,94,0.00,CLR,OVC,0.00,0.0,WeatherDisplay:10.37,2013-01-14 10:35:00,
2013-01-14 05:40:00,61.3,59.3,30.10,WSW,244,0.4,2.3,93,0.00,CLR,OVC,0.00,0.0,WeatherDisplay:10.37,2013-01-14 10:40:00,
2013-01-14 05:45:00,60.9,58.9,30.09,SSW,194,0.0,0.0,93,0.00,CLR,OVC,0.00,0.0,WeatherDisplay:10.37,2013-01-14 10:45:00,
2013-01-14 05:50:00,60.6,58.9,30.10,SSW,194,0.0,0.0,94,0.00,CLR,OVC,0.00,0.0,WeatherDisplay:10.37,2013-01-14 10:50:00,
2013-01-14 17:44:00,67.2,61.5,30.17,South,170,0.0,1.1,82,0.00,OVC,,0.01,0.0,WeatherDisplay:10.37,2013-01-14 22:44:00,
2013-01-14 17:49:00,66.8,61.5,30.17,South,170,0.2,1.1,83,0.00,OVC,,0.01,0.0,WeatherDisplay:10.37,2013-01-14 22:49:00,
2013-01-14 17:54:00,66.5,61.5,30.16,South,176,1.2,2.3,84,0.00,OVC,,0.01,0.0,WeatherDisplay:10.37,2013-01-14 22:54:00,
2013-01-14 17:59:00,66.3,61.7,30.16,South,170,0.3,2.3,85,0.00,CLR,OVC,0.01,0.0,WeatherDisplay:10.37,2013-01-14 22:59:00,
2013-01-14 18:04:00,66.1,61.8,30.16,South,190,1.5,1.5,86,0.00,CLR,OVC,0.01,0.0,WeatherDisplay:10.37,2013-01-14 23:04:00,
2013-01-14 18:09:00,66.0,61.7,30.16,SSE,165,0.6,2.3,86,0.00,CLR,OVC,0.01,0.0,WeatherDisplay:10.37,2013-01-14 23:09:00,
2013-01-14 18:14:00,65.9,61.9,30.16,SSW,203,1.1,4.0,87,0.00,CLR,OVC,0.01,0.0,WeatherDisplay:10.37,2013-01-14 23:14:00,
2013-01-14 18:19:00,65.8,61.8,30.16,South,179,1.6,2.3,87,0.00,CLR,OVC,0.01,0.0,WeatherDisplay:10.37,2013-01-14 23:19:00,
2013-01-14 18:24:00,65.7,61.7,30.16,South,186,2.0,3.5,87,0.00,CLR,OVC,0.01,0.0,WeatherDisplay:10.37,2013-01-14 23:24:00,
2013-01-14 18:29:00,65.8,61.8,30.16,SSE,168,2.1,3.5,87,0.00,CLR,OVC,0.01,0.0,WeatherDisplay:10.37,2013-01-14 23:29:00,
2013-01-14 18:34:00,65.8,61.8,30.16,South,175,2.9,3.5,87,0.00,CLR,OVC,0.01,0.0,WeatherDisplay:10.37,2013-01-14 23:34:00,
2013-01-14 18:39:00,65.9,61.6,30.16,South,178,1.9,4.0,86,0.00,CLR,OVC,0.01,0.0,WeatherDisplay:10.37,2013-01-14 23:39:00,
2013-01-14 18:44:00,65.9,61.6,30.16,South,190,1.9,4.6,86,0.00,CLR,OVC,0.01,0.0,WeatherDisplay:10.37,2013-01-14 23:44:00,
2013-01-14 18:49:00,66.0,61.7,30.16,South,184,1.9,3.5,86,0.00,CLR,OVC,0.01,0.0,WeatherDisplay:10.37,2013-01-14 23:49:00,
2013-01-14 18:54:00,65.9,61.6,30.16,South,175,1.2,4.6,86,0.00,CLR,OVC,0.01,0.0,WeatherDisplay:10.37,2013-01-14 23:54:00,
2013-01-14 18:59:00,65.9,61.6,30.15,South,178,2.6,3.5,86,0.00,CLR,OVC,0.01,0.0,WeatherDisplay:10.37,2013-01-14 23:59:00,
2013-01-14 19:04:00,65.9,61.6,30.15,SSE,164,2.1,4.0,86,0.00,CLR,OVC,0.01,0.0,WeatherDisplay:10.37,2013-01-15 00:04:00,
2013-01-14 19:09:00,65.8,61.5,30.15,South,186,1.2,3.5,86,0.00,CLR,OVC,0.01,0.0,WeatherDisplay:10.37,2013-01-15 00:09:00,
2013-01-14 19:14:00,65.7,61.4,30.15,SW,219,1.1,4.6,86,0.00,CLR,OVC,0.01,0.0,WeatherDisplay:10.37,2013-01-15 00:14:00,
2013-01-14 19:19:00,65.6,61.3,30.15,SSW,197,1.2,4.6,86,0.00,CLR,OVC,0.01,0.0,WeatherDisplay:10.37,2013-01-15 00:19:00,
2013-01-14 19:24:00,65.6,61.3,30.15,South,190,3.9,3.9,86,0.00,CLR,OVC,0.01,0.0,WeatherDisplay:10.37,2013-01-15 00:24:00,
2013-01-14 19:29:00,65.6,61.3,30.15,SSW,201,1.3,4.0,86,0.00,CLR,OVC,0.01,0.0,WeatherDisplay:10.37,2013-01-15 00:29:00,
2013-01-14 19:34:00,65.5,61.2,30.15,South,184,2.7,3.5,86,0.00,CLR,OVC,0.01,0.0,WeatherDisplay:10.37,2013-01-15 00:34:00,
2013-01-14 19:39:00,65.5,61.2,30.15,SSW,201,1.9,4.0,86,0.00,CLR,OVC,0.01,0.0,WeatherDisplay:10.37,2013-01-15 00:39:00,
2013-01-14 19:44:00,65.4,61.1,30.15,South,185,2.3,3.5,86,0.00,CLR,OVC,0.01,0.0,WeatherDisplay:10.37,2013-01-15 00:44:00,
2013-01-14 19:49:00,65.3,61.0,30.15,South,183,1.3,3.0,86,0.00,CLR,OVC,0.01,0.0,WeatherDisplay:10.37,2013-01-15 00:49:00,
2013-01-14 19:54:00,65.2,60.9,30.15,SSE,163,1.1,2.3,86,0.00,CLR,OVC,0.01,0.0,WeatherDisplay:10.37,2013-01-15 00:54:00,
2013-01-14 19:59:00,65.1,61.1,30.15,South,180,0.3,2.3,87,0.00,CLR,OVC,0.01,0.0,WeatherDisplay:10.37,2013-01-15 00:59:00,
2013-01-14 20:04:00,64.9,60.9,30.15,South,186,1.2,2.3,87,0.00,CLR,OVC,0.01,0.0,WeatherDisplay:10.37,2013-01-15 01:04:00,
2013-01-14 20:09:00,64.8,61.2,30.15,SSW,192,1.3,3.5,88,0.00,CLR,OVC,0.01,0.0,WeatherDisplay:10.37,2013-01-15 01:09:00,
2013-01-14 20:14:00,64.6,61.0,30.15,SW,220,0.6,3.5,88,0.00,CLR,OVC,0.01,0.0,WeatherDisplay:10.37,2013-01-15 01:14:00,
2013-01-14 20:19:00,64.5,60.9,30.14,South,184,0.9,2.3,88,0.00,CLR,OVC,0.01,0.0,WeatherDisplay:10.37,2013-01-15 01:19:00,
2013-01-14 20:24:00,64.4,61.1,30.15,South,182,0.8,2.3,89,0.00,CLR,OVC,0.01,0.0,WeatherDisplay:10.37,2013-01-15 01:24:00,
2013-01-14 20:29:00,64.3,61.0,30.15,SSE,167,1.8,3.5,89,0.00,CLR,OVC,0.01,0.0,WeatherDisplay:10.37,2013-01-15 01:29:00,
2013-01-14 20:34:00,64.3,61.0,30.15,SSE,158,3.8,5.8,89,0.00,CLR,OVC,0.01,0.0,WeatherDisplay:10.37,2013-01-15 01:34:00,
2013-01-14 20:39:00,64.3,61.0,30.15,SSW,208,2.5,4.6,89,0.00,CLR,OVC,0.01,0.0,WeatherDisplay:10.37,2013-01-15 01:39:00,
2013-01-14 20:44:00,64.1,60.8,30.15,SSE,160,1.8,3.5,89,0.00,CLR,OVC,0.01,0.0,WeatherDisplay:10.37,2013-01-15 01:44:00,
2013-01-14 20:49:00,64.1,60.8,30.15,SSE,159,2.3,3.5,89,0.00,CLR,OVC,0.01,0.0,WeatherDisplay:10.37,2013-01-15 01:49:00,
2013-01-14 20:54:00,64.0,60.7,30.15,South,185,3.0,3.5,89,0.00,CLR,OVC,0.01,0.0,WeatherDisplay:10.37,2013-01-15 01:54:00,
2013-01-14 20:59:00,63.8,60.5,30.14,South,175,1.6,3.5,89,0.00,CLR,OVC,0.01,0.0,WeatherDisplay:10.37,2013-01-15 01:59:00,
2013-01-14 21:04:00,63.7,60.7,30.14,South,177,1.3,3.5,90,0.00,CLR,OVC,0.01,0.0,WeatherDisplay:10.37,2013-01-15 02:04:00,
2013-01-14 21:09:00,63.5,60.5,30.14,SSW,192,3.1,3.5,90,0.00,CLR,OVC,0.01,0.0,WeatherDisplay:10.37,2013-01-15 02:09:00,
2013-01-14 21:14:00,63.4,60.4,30.14,South,183,0.6,2.3,90,0.00,CLR,OVC,0.01,0.0,WeatherDisplay:10.37,2013-01-15 02:14:00,
2013-01-14 21:19:00,63.4,60.7,30.14,SSW,209,1.7,4.0,91,0.00,CLR,OVC,0.01,0.0,WeatherDisplay:10.37,2013-01-15 02:19:00,
2013-01-14 21:24:00,63.3,60.6,30.14,South,170,0.4,2.3,91,0.00,CLR,OVC,0.01,0.0,WeatherDisplay:10.37,2013-01-15 02:24:00,
2013-01-14 21:29:00,63.4,60.7,30.14,South,174,2.9,4.6,91,0.00,CLR,OVC,0.01,0.0,WeatherDisplay:10.37,2013-01-15 02:29:00,
2013-01-14 21:34:00,63.3,60.6,30.14,South,186,1.0,3.5,91,0.00,CLR,OVC,0.01,0.0,WeatherDisplay:10.37,2013-01-15 02:34:00,
2013-01-14 21:39:00,63.4,60.7,30.14,SW,216,1.6,6.0,91,0.00,CLR,OVC,0.01,0.0,WeatherDisplay:10.37,2013-01-15 02:39:00,
2013-01-14 21:44:00,63.5,60.8,30.14,SW,215,2.5,3.5,91,0.00,CLR,OVC,0.01,0.0,WeatherDisplay:10.37,2013-01-15 02:44:00,
2013-01-14 21:49:00,63.5,60.8,30.14,SSW,198,3.7,6.9,91,0.00,CLR,OVC,0.01,0.0,WeatherDisplay:10.37,2013-01-15 02:49:00,
2013-01-14 21:54:00,63.5,60.8,30.14,South,177,1.5,3.5,91,0.00,CLR,OVC,0.01,0.0,WeatherDisplay:10.37,2013-01-15 02:54:00,
2013-01-14 21:59:00,63.6,60.9,30.13,South,187,4.1,8.1,91,0.00,CLR,OVC,0.01,0.0,WeatherDisplay:10.37,2013-01-15 02:59:00,
2013-01-14 22:04:00,63.6,60.9,30.13,South,188,2.2,5.8,91,0.00,CLR,OVC,0.01,0.0,WeatherDisplay:10.37,2013-01-15 03:04:00,
2013-01-14 22:09:00,63.7,61.0,30.13,South,186,2.7,7.0,91,0.00,CLR,OVC,0.01,0.0,WeatherDisplay:10.37,2013-01-15 03:09:00,
2013-01-14 22:14:00,63.7,61.0,30.13,SSW,193,0.6,3.5,91,0.00,CLR,OVC,0.01,0.0,WeatherDisplay:10.37,2013-01-15 03:14:00,
2013-01-14 22:19:00,63.7,60.7,30.13,South,181,2.4,6.0,90,0.00,CLR,OVC,0.01,0.0,WeatherDisplay:10.37,2013-01-15 03:19:00,
2013-01-14 22:24:00,63.8,60.8,30.13,South,179,1.8,4.6,90,0.00,CLR,OVC,0.01,0.0,WeatherDisplay:10.37,2013-01-15 03:24:00,
2013-01-14 22:29:00,63.7,60.7,30.13,South,178,2.3,3.5,90,0.00,CLR,OVC,0.01,0.0,WeatherDisplay:10.37,2013-01-15 03:29:00,
2013-01-14 22:34:00,63.7,60.7,30.14,SW,215,2.4,3.5,90,0.00,CLR,OVC,0.01,0.0,WeatherDisplay:10.37,2013-01-15 03:34:00,
2013-01-14 22:40:00,63.6,60.6,30.14,SSW,208,2.0,3.5,90,0.00,CLR,OVC,0.01,0.0,WeatherDisplay:10.37,2013-01-15 03:40:00,
2013-01-14 22:45:00,63.6,60.9,30.13,SW,234,3.5,4.0,91,0.00,CLR,OVC,0.01,0.0,WeatherDisplay:10.37,2013-01-15 03:45:00,
2013-01-14 22:50:00,63.6,60.9,30.14,SSW,198,3.5,4.0,91,0.00,CLR,OVC,0.01,0.0,WeatherDisplay:10.37,2013-01-15 03:50:00,
2013-01-14 22:55:00,63.6,60.9,30.14,SSW,192,3.7,6.9,91,0.00,CLR,OVC,0.01,0.0,WeatherDisplay:10.37,2013-01-15 03:55:00,
2013-01-14 23:00:00,63.7,61.0,30.14,SSE,167,3.4,6.9,91,0.00,CLR,OVC,0.01,0.0,WeatherDisplay:10.37,2013-01-15 04:00:00,
2013-01-14 23:05:00,63.7,61.0,30.13,South,173,3.2,5.8,91,0.00,CLR,OVC,0.01,0.0,WeatherDisplay:10.37,2013-01-15 04:05:00,
2013-01-14 23:10:00,63.7,61.0,30.13,South,180,3.0,3.5,91,0.00,CLR,OVC,0.01,0.0,WeatherDisplay:10.37,2013-01-15 04:10:00,
2013-01-14 23:15:00,63.7,60.7,30.13,SW,215,1.8,3.0,90,0.00,CLR,OVC,0.01,0.0,WeatherDisplay:10.37,2013-01-15 04:15:00,
2013-01-14 23:20:00,63.7,61.0,30.13,South,186,3.0,5.8,91,0.00,CLR,OVC,0.01,0.0,WeatherDisplay:10.37,2013-01-15 04:20:00,
2013-01-14 23:25:00,63.8,60.8,30.13,South,169,2.1,3.5,90,0.00,CLR,OVC,0.01,0.0,WeatherDisplay:10.37,2013-01-15 04:25:00,
2013-01-14 23:30:00,63.8,60.8,30.13,SW,230,3.0,3.5,90,0.00,CLR,OVC,0.01,0.0,WeatherDisplay:10.37,2013-01-15 04:30:00,
2013-01-14 23:35:00,63.9,60.9,30.13,South,182,3.0,5.8,90,0.00,CLR,OVC,0.01,0.0,WeatherDisplay:10.37,2013-01-15 04:35:00,
2013-01-14 23:40:00,64.0,61.0,30.13,SSW,195,2.3,5.8,90,0.00,CLR,OVC,0.01,0.0,WeatherDisplay:10.37,2013-01-15 04:40:00,
2013-01-14 23:45:00,64.1,61.1,30.13,SSW,197,2.7,4.6,90,0.00,CLR,OVC,0.01,0.0,WeatherDisplay:10.37,2013-01-15 04:45:00,
2013-01-14 23:50:00,64.2,61.2,30.14,South,170,2.4,4.6,90,0.00,CLR,OVC,0.01,0.0,WeatherDisplay:10.37,2013-01-15 04:50:00,
2013-01-14 23:55:00,64.2,61.2,30.14,South,188,1.8,5.8,90,0.00,CLR,OVC,0.01,0.0,WeatherDisplay:10.37,2013-01-15 04:55:00,